Time;durP1;ratioP1;P1;durP2;ratioP2;P2;SDS_P1;SDS_P2;PMS_P1;PMS_P2;Temp;Humidity;BMP_temperature;BMP_pressure;BME280_temperature;BME280_humidity;BME280_pressure;Samples;Min_cycle;Max_cycle;Signal;HPM_P1;HPM_P2
2022/07/11 00:02:06;;;;;;;0.20;0.20;;;21.30;78.00;;;;;;3970184;29;20061;-63
2022/07/11 00:04:29;;;;;;;0.35;0.35;;;21.30;78.00;;;;;;3971205;29;20058;-63
2022/07/11 00:06:52;;;;;;;0.20;0.20;;;21.30;78.00;;;;;;3957927;29;20058;-63
2022/07/11 00:09:14;;;;;;;0.20;0.20;;;21.30;78.10;;;;;;3971368;29;20066;-63
2022/07/11 00:11:36;;;;;;;0.28;0.28;;;21.30;78.00;;;;;;3971772;29;20234;-64
2022/07/11 00:13:58;;;;;;;0.00;0.00;;;21.30;78.10;;;;;;3972015;29;20063;-63
2022/07/11 00:16:22;;;;;;;0.20;0.20;;;21.30;78.10;;;;;;3971564;29;20141;-63
2022/07/11 00:18:44;;;;;;;0.00;0.00;;;21.30;78.10;;;;;;3964535;29;20063;-63
2022/07/11 00:21:06;;;;;;;0.10;0.10;;;21.30;78.10;;;;;;3971575;29;20506;-64
2022/07/11 00:23:28;;;;;;;0.00;0.00;;;21.30;78.10;;;;;;3972064;29;20407;-63
2022/07/11 00:25:50;;;;;;;0.00;0.00;;;21.30;78.20;;;;;;3971311;29;20119;-64
2022/07/11 00:28:12;;;;;;;0.00;0.00;;;21.30;78.20;;;;;;3971641;29;20407;-63
2022/07/11 00:30:34;;;;;;;0.00;0.00;;;21.30;78.10;;;;;;3971540;29;20053;-64
2022/07/11 00:32:58;;;;;;;0.00;0.00;;;21.30;78.20;;;;;;3967555;29;20047;-63
2022/07/11 00:35:19;;;;;;;0.20;0.20;;;21.30;78.20;;;;;;3956522;29;20130;-64
2022/07/11 00:37:41;;;;;;;0.00;0.00;;;21.30;78.30;;;;;;3959061;29;20440;-63
2022/07/11 00:40:04;;;;;;;0.00;0.00;;;21.30;78.30;;;;;;3956247;30;20145;-64
2022/07/11 00:42:26;;;;;;;0.10;0.10;;;21.30;78.30;;;;;;3956354;30;20051;-63
2022/07/11 00:44:49;;;;;;;0.00;0.00;;;21.30;78.30;;;;;;3951482;30;20521;-63
2022/07/11 00:47:11;;;;;;;0.00;0.00;;;21.30;78.30;;;;;;3968181;29;20070;-63
2022/07/11 00:49:34;;;;;;;0.00;0.00;;;21.30;78.30;;;;;;3970974;29;20111;-63
2022/07/11 00:51:56;;;;;;;0.00;0.00;;;21.20;78.20;;;;;;3971210;29;20070;-63
2022/07/11 00:54:22;;;;;;;0.00;0.00;;;21.20;78.30;;;;;;3968136;29;20130;-63
2022/07/11 00:56:44;;;;;;;0.03;0.03;;;21.20;78.40;;;;;;3956193;29;20061;-63
2022/07/11 00:59:06;;;;;;;0.00;0.00;;;21.30;78.40;;;;;;3955921;29;20048;-63
2022/07/11 01:01:28;;;;;;;0.00;0.00;;;21.20;78.40;;;;;;3957256;29;20073;-63
2022/07/11 01:03:51;;;;;;;0.00;0.00;;;21.20;78.40;;;;;;3956062;29;20055;-63
2022/07/11 01:06:15;;;;;;;0.00;0.00;;;21.20;78.40;;;;;;3955717;29;20051;-64
2022/07/11 01:08:38;;;;;;;0.10;0.10;;;21.20;78.40;;;;;;3956217;29;20467;-63
2022/07/11 01:11:01;;;;;;;0.00;0.00;;;21.20;78.40;;;;;;3942271;29;20124;-63
2022/07/11 01:13:23;;;;;;;0.00;0.00;;;21.20;78.50;;;;;;3956588;29;20077;-63
2022/07/11 01:15:45;;;;;;;0.00;0.00;;;21.20;78.50;;;;;;3956041;29;20051;-64
2022/07/11 01:18:07;;;;;;;0.00;0.00;;;21.20;78.50;;;;;;3956211;30;20065;-63
2022/07/11 01:20:30;;;;;;;0.00;0.00;;;21.20;78.50;;;;;;3956032;30;20061;-63
2022/07/11 01:22:56;;;;;;;0.00;0.00;;;21.20;78.50;;;;;;3955899;30;20063;-63
2022/07/11 01:25:30;;;;;;;0.00;0.00;;;21.20;78.60;;;;;;3955875;30;20089;-63
2022/07/11 01:27:52;;;;;;;0.00;0.00;;;21.20;78.60;;;;;;3951507;30;20077;-63
2022/07/11 01:30:15;;;;;;;0.20;0.20;;;21.20;78.70;;;;;;3960012;29;20134;-63
2022/07/11 01:32:37;;;;;;;0.20;0.20;;;21.20;78.70;;;;;;3964274;29;20112;-64
2022/07/11 01:34:59;;;;;;;0.00;0.00;;;21.20;78.70;;;;;;3956163;29;20061;-63
2022/07/11 01:37:21;;;;;;;0.00;0.00;;;21.20;78.70;;;;;;3956140;29;20051;-64
2022/07/11 01:39:42;;;;;;;0.00;0.00;;;21.20;78.70;;;;;;3956158;29;20195;-62
2022/07/11 01:42:06;;;;;;;0.00;0.00;;;21.20;78.70;;;;;;3956167;29;20089;-63
2022/07/11 01:44:28;;;;;;;0.00;0.00;;;21.20;78.70;;;;;;3955837;29;20050;-63
2022/07/11 01:46:51;;;;;;;0.00;0.00;;;21.20;78.80;;;;;;3970186;29;20135;-64
2022/07/11 01:49:13;;;;;;;0.00;0.00;;;21.20;78.80;;;;;;3969200;29;20065;-63
2022/07/11 01:51:35;;;;;;;0.00;0.00;;;21.20;78.70;;;;;;3971032;29;20134;-64
2022/07/11 01:53:57;;;;;;;0.00;0.00;;;21.20;78.80;;;;;;3970876;29;20074;-62
2022/07/11 01:56:19;;;;;;;0.30;0.30;;;21.20;78.80;;;;;;3967886;29;20065;-63
2022/07/11 01:58:46;;;;;;;0.00;0.00;;;21.20;78.80;;;;;;3956163;29;20143;-62
2022/07/11 02:01:09;;;;;;;0.00;0.00;;;21.20;78.90;;;;;;3956022;29;20058;-63
2022/07/11 02:03:31;;;;;;;0.00;0.00;;;21.10;78.80;;;;;;3955894;29;20059;-63
2022/07/11 02:05:53;;;;;;;0.00;0.00;;;21.20;78.90;;;;;;3964383;29;20135;-64
2022/07/11 02:08:15;;;;;;;0.05;0.05;;;21.20;78.90;;;;;;3970919;29;20419;-63
2022/07/11 02:10:37;;;;;;;0.00;0.00;;;21.20;79.00;;;;;;3970274;29;20090;-63
2022/07/11 02:13:01;;;;;;;0.03;0.03;;;21.10;78.90;;;;;;3970878;29;20139;-64
2022/07/11 02:15:24;;;;;;;0.00;0.00;;;21.20;78.90;;;;;;3970084;29;20458;-64
2022/07/11 02:17:46;;;;;;;0.00;0.00;;;21.20;79.10;;;;;;3970507;29;20046;-64
2022/07/11 02:20:09;;;;;;;0.00;0.00;;;21.10;79.10;;;;;;3955643;29;20054;-64
2022/07/11 02:22:36;;;;;;;0.00;0.00;;;21.20;79.10;;;;;;3955784;30;20059;-64
2022/07/11 02:24:58;;;;;;;0.00;0.00;;;21.20;79.20;;;;;;3955762;30;20565;-64
2022/07/11 02:27:20;;;;;;;1.02;0.65;;;21.20;79.10;;;;;;3955963;30;20108;-64
2022/07/11 02:29:42;;;;;;;0.57;0.57;;;21.20;79.10;;;;;;3955582;30;20140;-67
2022/07/11 02:32:07;;;;;;;0.00;0.00;;;21.20;79.20;;;;;;3955846;30;20070;-67
2022/07/11 02:34:28;;;;;;;0.00;0.00;;;21.20;79.20;;;;;;3961047;29;20104;-67
2022/07/11 02:36:50;;;;;;;0.00;0.00;;;21.10;79.00;;;;;;3973112;29;20074;-64
2022/07/11 02:39:12;;;;;;;0.05;0.05;;;21.20;79.00;;;;;;3972835;29;20065;-65
2022/07/11 02:41:34;;;;;;;1.10;0.70;;;21.20;79.90;;;;;;3963837;29;20653;-64
2022/07/11 02:43:56;;;;;;;0.00;0.00;;;21.20;79.20;;;;;;3972670;29;20073;-64
2022/07/11 02:46:18;;;;;;;0.00;0.00;;;21.20;79.00;;;;;;3959656;29;20047;-64
2022/07/11 02:48:41;;;;;;;0.00;0.00;;;21.20;79.10;;;;;;3972893;29;20624;-64
2022/07/11 02:51:04;;;;;;;0.00;0.00;;;21.20;79.00;;;;;;3971404;29;20120;-63
2022/07/11 02:53:26;;;;;;;0.00;0.00;;;21.20;79.10;;;;;;3973075;29;20072;-63
2022/07/11 02:55:48;;;;;;;0.00;0.00;;;21.20;79.10;;;;;;3973119;29;20074;-62
2022/07/11 02:58:10;;;;;;;0.00;0.00;;;21.20;79.20;;;;;;3946589;29;20481;-63
2022/07/11 03:00:33;;;;;;;0.00;0.00;;;21.10;79.10;;;;;;3973094;29;20054;-63
2022/07/11 03:02:55;;;;;;;0.00;0.00;;;21.20;79.10;;;;;;3972873;29;20478;-63
2022/07/11 03:05:18;;;;;;;0.00;0.00;;;21.20;79.10;;;;;;3959009;29;20079;-63
2022/07/11 03:07:40;;;;;;;0.00;0.00;;;21.10;79.10;;;;;;3964945;29;20097;-63
2022/07/11 03:10:03;;;;;;;0.00;0.00;;;21.20;79.20;;;;;;3957841;29;20429;-64
2022/07/11 03:12:25;;;;;;;0.00;0.00;;;21.20;80.10;;;;;;3957960;29;20062;-63
2022/07/11 03:14:48;;;;;;;0.00;0.00;;;21.10;79.10;;;;;;3958070;29;20061;-63
2022/07/11 03:17:10;;;;;;;0.00;0.00;;;21.10;79.20;;;;;;3957950;29;20112;-63
2022/07/11 03:19:32;;;;;;;0.00;0.00;;;21.10;79.30;;;;;;3957825;29;20177;-63
2022/07/11 03:21:55;;;;;;;0.00;0.00;;;21.20;79.40;;;;;;3958814;29;20059;-63
2022/07/11 03:24:17;;;;;;;0.17;0.17;;;21.10;80.20;;;;;;3943940;29;20146;-63
2022/07/11 03:26:39;;;;;;;0.00;0.00;;;21.10;79.30;;;;;;3958158;29;20043;-63
2022/07/11 03:29:01;;;;;;;0.17;0.17;;;21.10;79.40;;;;;;3957002;29;20408;-63
2022/07/11 03:31:23;;;;;;;0.00;0.00;;;21.10;79.50;;;;;;3957726;29;20142;-62
2022/07/11 03:33:45;;;;;;;0.00;0.00;;;21.10;79.40;;;;;;3957211;29;20150;-63
2022/07/11 03:36:07;;;;;;;0.00;0.00;;;21.10;79.40;;;;;;3967576;29;20051;-63
2022/07/11 03:38:31;;;;;;;0.00;0.00;;;21.10;79.40;;;;;;3972240;29;20057;-63
2022/07/11 03:40:55;;;;;;;0.00;0.00;;;21.10;79.40;;;;;;3972173;29;20059;-63
2022/07/11 03:43:17;;;;;;;0.00;0.00;;;21.10;79.50;;;;;;3958171;29;20051;-63
2022/07/11 03:45:39;;;;;;;0.00;0.00;;;21.10;80.40;;;;;;3971349;29;20453;-63
2022/07/11 03:48:02;;;;;;;0.00;0.00;;;21.10;79.50;;;;;;3972069;29;20058;-63
2022/07/11 03:50:24;;;;;;;0.00;0.00;;;21.10;79.50;;;;;;3965898;29;20441;-63
2022/07/11 03:52:46;;;;;;;6.45;2.65;;;21.10;79.50;;;;;;3957095;29;20530;-63
2022/07/11 03:55:10;;;;;;;0.00;0.00;;;21.10;79.60;;;;;;3957045;29;20142;-63
2022/07/11 03:57:33;;;;;;;0.00;0.00;;;21.10;79.60;;;;;;3957104;29;20089;-63
2022/07/11 03:59:55;;;;;;;0.00;0.00;;;21.10;79.60;;;;;;3943596;29;20067;-63
2022/07/11 04:02:17;;;;;;;0.00;0.00;;;21.10;79.60;;;;;;3957173;29;20079;-64
2022/07/11 04:04:39;;;;;;;0.00;0.00;;;21.10;79.60;;;;;;3969239;29;20542;-62
2022/07/11 04:07:01;;;;;;;0.32;0.32;;;21.10;79.60;;;;;;3971902;29;20076;-63
2022/07/11 04:09:24;;;;;;;0.00;0.00;;;21.10;79.70;;;;;;3964937;29;20100;-63
2022/07/11 04:11:48;;;;;;;0.00;0.00;;;21.10;80.60;;;;;;3943554;29;20063;-63
2022/07/11 04:14:10;;;;;;;0.00;0.00;;;21.10;80.50;;;;;;3943485;29;20476;-63
2022/07/11 04:16:32;;;;;;;0.55;0.55;;;21.10;79.70;;;;;;3956828;29;20051;-63
2022/07/11 04:18:54;;;;;;;0.00;0.00;;;21.10;79.80;;;;;;3957253;29;20139;-63
2022/07/11 04:21:16;;;;;;;0.00;0.00;;;21.10;79.80;;;;;;3958449;29;20510;-63
2022/07/11 04:23:39;;;;;;;0.00;0.00;;;21.10;79.90;;;;;;3957138;29;20058;-62
2022/07/11 04:26:01;;;;;;;0.00;0.00;;;21.10;80.00;;;;;;3942935;29;20094;-63
2022/07/11 04:28:24;;;;;;;0.00;0.00;;;21.10;79.90;;;;;;3957890;29;20066;-63
2022/07/11 04:30:46;;;;;;;0.10;0.10;;;21.10;79.90;;;;;;3971085;29;20495;-64
2022/07/11 04:33:08;;;;;;;0.00;0.00;;;21.10;80.00;;;;;;3971165;29;20178;-63
2022/07/11 04:35:32;;;;;;;0.00;0.00;;;21.00;80.00;;;;;;3969640;29;20055;-63
2022/07/11 04:37:54;;;;;;;0.00;0.00;;;21.10;79.90;;;;;;3971994;29;20073;-63
2022/07/11 04:40:17;;;;;;;0.00;0.00;;;21.00;80.00;;;;;;3970911;29;20504;-63
2022/07/11 04:42:39;;;;;;;0.00;0.00;;;21.00;79.90;;;;;;3971118;29;20055;-63
2022/07/11 04:45:03;;;;;;;0.00;0.00;;;21.00;79.90;;;;;;3970936;29;20054;-63
2022/07/11 04:47:24;;;;;;;0.00;0.00;;;21.10;80.10;;;;;;3971245;29;20568;-62
2022/07/11 04:49:47;;;;;;;0.00;0.00;;;21.00;80.00;;;;;;3959015;29;20061;-63
2022/07/11 04:52:09;;;;;;;0.70;0.70;;;21.00;80.00;;;;;;3942344;30;20055;-63
2022/07/11 04:54:31;;;;;;;0.00;0.00;;;21.00;80.00;;;;;;3956010;30;20109;-63
2022/07/11 04:56:53;;;;;;;1.08;1.08;;;21.00;80.00;;;;;;3956309;29;20567;-63
2022/07/11 04:59:15;;;;;;;0.00;0.00;;;21.00;80.10;;;;;;3956318;30;20104;-63
2022/07/11 05:01:39;;;;;;;0.10;0.10;;;21.00;80.10;;;;;;3957428;29;20058;-62
2022/07/11 05:04:01;;;;;;;0.00;0.00;;;21.00;80.30;;;;;;3944529;29;20635;-63
2022/07/11 05:06:23;;;;;;;0.00;0.00;;;21.10;80.60;;;;;;3970894;29;20061;-64
2022/07/11 05:08:45;;;;;;;0.00;0.00;;;21.10;80.80;;;;;;3971210;29;20062;-64
2022/07/11 05:11:07;;;;;;;0.05;0.05;;;21.10;80.50;;;;;;3960908;29;20051;-64
2022/07/11 05:13:30;;;;;;;0.00;0.00;;;21.10;80.40;;;;;;3956157;29;20136;-64
2022/07/11 05:15:52;;;;;;;0.47;0.47;;;21.10;80.30;;;;;;3957678;29;20061;-65
2022/07/11 05:18:16;;;;;;;0.00;0.00;;;21.10;80.30;;;;;;3970437;29;20098;-64
2022/07/11 05:20:38;;;;;;;0.00;0.00;;;21.10;80.30;;;;;;3970784;29;20055;-64
2022/07/11 05:23:00;;;;;;;0.00;0.00;;;21.10;81.20;;;;;;3957116;29;20139;-63
2022/07/11 05:25:23;;;;;;;0.00;0.00;;;21.10;80.40;;;;;;3970488;29;20112;-64
2022/07/11 05:27:45;;;;;;;0.00;0.00;;;21.10;80.60;;;;;;3970946;29;20050;-64
2022/07/11 05:30:08;;;;;;;0.10;0.10;;;21.10;80.60;;;;;;3968878;29;20063;-64
2022/07/11 05:32:30;;;;;;;0.00;0.00;;;21.10;80.60;;;;;;3957929;29;20599;-64
2022/07/11 05:35:00;;;;;;;0.00;0.00;;;21.10;80.60;;;;;;3955765;29;20059;-64
2022/07/11 05:37:22;;;;;;;0.00;0.00;;;21.00;80.60;;;;;;3954928;29;20505;-64
2022/07/11 05:39:44;;;;;;;0.00;0.00;;;21.00;80.60;;;;;;3942520;29;20235;-65
2022/07/11 05:42:07;;;;;;;0.00;0.00;;;21.00;81.50;;;;;;3955713;30;20055;-64
2022/07/11 05:44:29;;;;;;;0.13;0.13;;;21.00;80.60;;;;;;3955599;30;20047;-64
2022/07/11 05:46:51;;;;;;;0.00;0.00;;;21.00;80.70;;;;;;3955790;30;20496;-64
2022/07/11 05:49:13;;;;;;;0.00;0.00;;;21.10;81.60;;;;;;3955505;30;20140;-64
2022/07/11 05:51:37;;;;;;;0.00;0.00;;;21.00;80.70;;;;;;3955924;30;20146;-64
2022/07/11 05:53:59;;;;;;;0.10;0.10;;;21.00;80.70;;;;;;3941683;30;20125;-64
2022/07/11 05:56:21;;;;;;;0.20;0.20;;;21.00;80.70;;;;;;3942371;30;20119;-64
2022/07/11 05:58:44;;;;;;;0.00;0.00;;;21.00;80.70;;;;;;3955214;30;20066;-64
2022/07/11 06:01:06;;;;;;;0.55;0.30;;;21.00;80.70;;;;;;3955638;30;20489;-65
2022/07/11 06:03:28;;;;;;;0.00;0.00;;;21.00;80.70;;;;;;3957908;29;20079;-64
2022/07/11 06:05:51;;;;;;;0.00;0.00;;;21.00;80.70;;;;;;3961786;29;20507;-64
2022/07/11 06:10:55;;;;;;;2.63;1.25;;;21.00;80.70;;;;;;3958121;30;20505;-64
2022/07/11 06:13:17;;;;;;;0.00;0.00;;;21.00;80.70;;;;;;3958487;30;20134;-64
2022/07/11 06:15:38;;;;;;;0.00;0.00;;;21.00;80.70;;;;;;3947845;29;20108;-63
2022/07/11 06:18:00;;;;;;;0.00;0.00;;;21.00;80.70;;;;;;3959211;29;20066;-64
2022/07/11 06:20:23;;;;;;;0.00;0.00;;;21.00;80.80;;;;;;3960175;29;20131;-64
2022/07/11 06:22:45;;;;;;;0.00;0.00;;;21.00;80.80;;;;;;3971842;29;20055;-65
2022/07/11 06:25:10;;;;;;;0.00;0.00;;;21.00;80.70;;;;;;3969262;29;20051;-63
2022/07/11 06:27:32;;;;;;;0.00;0.00;;;21.00;80.80;;;;;;3973279;29;20050;-64
2022/07/11 06:29:54;;;;;;;0.00;0.00;;;21.00;80.70;;;;;;3973208;29;20054;-64
2022/07/11 06:32:16;;;;;;;0.00;0.00;;;21.00;80.80;;;;;;3959276;29;20065;-64
2022/07/11 06:34:38;;;;;;;0.00;0.00;;;21.00;80.80;;;;;;3973547;29;20468;-63
2022/07/11 06:37:01;;;;;;;0.00;0.00;;;21.00;80.80;;;;;;3957927;30;20507;-64
2022/07/11 06:39:24;;;;;;;0.00;0.00;;;21.00;80.90;;;;;;3958417;30;20085;-63
2022/07/11 06:41:47;;;;;;;0.00;0.00;;;21.00;80.80;;;;;;3958380;29;20521;-65
2022/07/11 06:44:09;;;;;;;0.00;0.00;;;21.00;80.90;;;;;;3958046;29;20411;-63
2022/07/11 06:46:31;;;;;;;0.70;0.57;;;21.00;81.00;;;;;;3962738;29;20061;-64
2022/07/11 06:48:54;;;;;;;0.00;0.00;;;21.00;81.10;;;;;;3973078;29;20471;-64
2022/07/11 06:51:16;;;;;;;0.00;0.00;;;21.10;81.10;;;;;;3972620;29;20061;-64
2022/07/11 06:53:38;;;;;;;0.00;0.00;;;21.10;81.10;;;;;;3973408;29;20464;-63
2022/07/11 06:56:00;;;;;;;0.00;0.00;;;21.10;81.20;;;;;;3967783;29;20062;-64
2022/07/11 06:58:33;;;;;;;0.00;0.00;;;21.10;81.20;;;;;;3973254;29;20046;-63
2022/07/11 07:00:55;;;;;;;0.00;0.00;;;21.20;81.30;;;;;;3972937;29;20065;-63
2022/07/11 07:03:17;;;;;;;15.25;2.65;;;21.20;81.50;;;;;;3959596;29;20074;-63
2022/07/11 07:05:41;;;;;;;0.00;0.00;;;21.20;81.70;;;;;;3972927;29;20046;-64
2022/07/11 07:08:03;;;;;;;0.00;0.00;;;21.20;81.90;;;;;;3970704;29;20051;-63
2022/07/11 07:10:25;;;;;;;0.00;0.00;;;21.20;82.10;;;;;;3971720;29;20395;-65
2022/07/11 07:12:48;;;;;;;1.45;1.02;;;21.20;82.50;;;;;;3967909;29;20063;-63
2022/07/11 07:15:12;;;;;;;0.00;0.00;;;21.20;82.70;;;;;;3972623;29;20061;-65
2022/07/11 07:17:34;;;;;;;0.00;0.00;;;21.20;83.70;;;;;;3972839;29;20494;-63
2022/07/11 07:19:56;;;;;;;2.30;0.93;;;21.20;82.70;;;;;;3972381;29;20469;-63
2022/07/11 07:22:18;;;;;;;0.00;0.00;;;21.20;82.70;;;;;;3963196;29;20515;-64
2022/07/11 07:24:40;;;;;;;0.00;0.00;;;21.20;82.70;;;;;;3970333;29;20062;-64
2022/07/11 07:27:02;;;;;;;0.00;0.00;;;21.20;82.60;;;;;;3972346;29;20400;-64
2022/07/11 07:29:26;;;;;;;0.00;0.00;;;21.20;82.60;;;;;;3972263;29;20068;-64
2022/07/11 07:31:49;;;;;;;0.00;0.00;;;21.20;82.50;;;;;;3972606;29;20075;-64
2022/07/11 07:34:11;;;;;;;0.52;0.52;;;21.20;82.50;;;;;;3972316;29;20544;-64
2022/07/11 07:36:33;;;;;;;0.00;0.00;;;21.20;82.50;;;;;;3972453;29;20617;-64
2022/07/11 07:38:56;;;;;;;0.00;0.00;;;21.20;82.50;;;;;;3972138;29;20070;-63
2022/07/11 07:41:18;;;;;;;0.00;0.00;;;21.20;82.50;;;;;;3972721;29;20108;-64
2022/07/11 07:43:41;;;;;;;0.00;0.00;;;21.20;82.50;;;;;;3957320;29;20145;-64
2022/07/11 07:46:04;;;;;;;0.00;0.00;;;21.20;82.50;;;;;;3963671;29;20511;-64
2022/07/11 07:48:27;;;;;;;0.00;0.00;;;21.20;82.60;;;;;;3961884;29;20092;-65
2022/07/11 07:50:54;;;;;;;0.00;0.00;;;21.20;82.70;;;;;;3957242;29;20078;-64
2022/07/11 07:53:16;;;;;;;0.22;0.22;;;21.10;82.50;;;;;;3957234;29;20060;-64
2022/07/11 07:55:38;;;;;;;0.00;0.00;;;21.10;82.50;;;;;;3957480;29;20061;-64
2022/07/11 07:58:00;;;;;;;0.00;0.00;;;21.10;82.40;;;;;;3957133;29;20512;-65
2022/07/11 08:03:06;;;;;;;0.00;0.00;;;21.10;82.60;;;;;;3957392;30;20054;-63
2022/07/11 08:05:30;;;;;;;0.28;0.28;;;21.10;82.60;;;;;;3958959;29;20133;-62
2022/07/11 08:07:51;;;;;;;0.00;0.00;;;21.10;82.30;;;;;;3961155;29;20055;-68
2022/07/11 08:10:14;;;;;;;0.20;0.20;;;21.10;82.10;;;;;;3969985;29;20058;-68
2022/07/11 08:12:36;;;;;;;0.00;0.00;;;21.20;82.00;;;;;;3958556;29;20043;-69
2022/07/11 08:14:58;;;;;;;0.00;0.00;;;21.20;82.20;;;;;;3957512;29;20083;-68
2022/07/11 08:17:20;;;;;;;0.00;0.00;;;21.20;82.20;;;;;;3957421;29;20457;-68
2022/07/11 08:19:42;;;;;;;0.00;0.00;;;21.20;82.10;;;;;;3958993;29;20059;-68
2022/07/11 08:22:05;;;;;;;0.00;0.00;;;21.10;81.90;;;;;;3968306;29;20057;-68
2022/07/11 08:24:27;;;;;;;0.00;0.00;;;21.10;81.90;;;;;;3971557;29;20058;-68
2022/07/11 08:26:49;;;;;;;0.00;0.00;;;21.10;81.90;;;;;;3967260;29;20090;-68
2022/07/11 08:29:11;;;;;;;0.00;0.00;;;21.10;81.80;;;;;;3970540;29;20131;-67
2022/07/11 08:31:33;;;;;;;0.82;0.82;;;21.10;81.70;;;;;;3970460;29;20143;-67
2022/07/11 08:33:57;;;;;;;0.00;0.00;;;21.20;81.90;;;;;;3971181;29;20057;-68
2022/07/11 08:36:21;;;;;;;0.00;0.00;;;21.10;81.70;;;;;;3965894;29;20066;-68
2022/07/11 08:38:46;;;;;;;0.00;0.00;;;21.20;81.70;;;;;;3969597;29;20046;-68
2022/07/11 08:41:08;;;;;;;0.00;0.00;;;21.20;81.70;;;;;;3957603;29;20142;-68
2022/07/11 08:43:31;;;;;;;0.00;0.00;;;21.20;81.80;;;;;;3956012;29;20490;-68
2022/07/11 08:45:54;;;;;;;0.00;0.00;;;21.20;81.70;;;;;;3964216;29;20066;-68
2022/07/11 08:48:17;;;;;;;0.00;0.00;;;21.20;81.70;;;;;;3971037;29;20528;-68
2022/07/11 08:50:39;;;;;;;0.20;0.20;;;21.20;81.70;;;;;;3971114;29;20581;-68
2022/07/11 08:53:03;;;;;;;0.00;0.00;;;21.20;81.70;;;;;;3951095;29;20063;-68
2022/07/11 08:55:29;;;;;;;0.00;0.00;;;21.20;81.60;;;;;;3943003;30;20059;-68
2022/07/11 08:57:52;;;;;;;0.00;0.00;;;21.20;81.60;;;;;;3963016;29;20135;-69
2022/07/11 09:00:15;;;;;;;0.00;0.00;;;21.20;81.40;;;;;;3957990;29;20109;-69
2022/07/11 09:02:37;;;;;;;0.00;0.00;;;21.30;81.50;;;;;;3950983;29;20056;-68
2022/07/11 09:04:59;;;;;;;0.10;0.10;;;21.20;81.30;;;;;;3956491;29;20071;-68
2022/07/11 09:07:22;;;;;;;0.00;0.00;;;21.20;81.30;;;;;;3970190;29;20069;-68
2022/07/11 09:09:45;;;;;;;0.00;0.00;;;21.30;81.40;;;;;;3967211;29;20072;-68
2022/07/11 09:12:15;;;;;;;0.00;0.00;;;21.20;81.20;;;;;;3955821;29;20065;-68
2022/07/11 09:14:37;;;;;;;0.00;0.00;;;21.20;81.20;;;;;;3956786;30;20069;-68
2022/07/11 09:17:01;;;;;;;0.00;0.00;;;21.20;81.20;;;;;;3956602;29;20433;-69
2022/07/11 09:19:24;;;;;;;0.00;0.00;;;21.20;81.30;;;;;;3960715;29;20054;-63
2022/07/11 09:27:42;;;;;;;0.00;0.00;;;21.30;81.50;;;;;;3970936;29;20058;-64
2022/07/11 09:30:17;;;;;;;0.28;0.28;;;21.30;81.40;;;;;;3969489;29;20070;-64
2022/07/11 09:32:43;;;;;;;0.00;0.00;;;21.30;81.40;;;;;;3955877;30;20047;-64
2022/07/11 09:35:06;;;;;;;0.00;0.00;;;21.30;81.30;;;;;;3955585;30;20092;-64
2022/07/11 09:37:43;;;;;;;0.00;0.00;;;21.30;81.30;;;;;;3963426;29;20078;-64
2022/07/11 09:40:12;;;;;;;0.00;0.00;;;21.30;81.30;;;;;;3970957;29;20150;-63
2022/07/11 09:42:48;;;;;;;0.00;0.00;;;21.30;81.40;;;;;;3970833;29;20097;-64
2022/07/11 09:45:12;;;;;;;0.00;0.00;;;21.30;81.30;;;;;;3962073;29;20055;-64
2022/07/11 09:47:44;;;;;;;0.00;0.00;;;21.30;81.30;;;;;;3964503;29;20047;-64
2022/07/11 09:50:08;;;;;;;0.10;0.10;;;21.30;81.30;;;;;;3958363;29;20055;-65
2022/07/11 09:52:30;;;;;;;0.00;0.00;;;21.30;81.30;;;;;;3958800;29;20143;-65
2022/07/11 09:54:56;;;;;;;0.00;0.00;;;21.30;81.20;;;;;;3959306;29;20415;-64
2022/07/11 09:57:18;;;;;;;0.00;0.00;;;21.30;81.20;;;;;;3966026;29;20114;-64
2022/07/11 09:59:43;;;;;;;0.00;0.00;;;21.30;81.30;;;;;;3959009;29;20481;-65
2022/07/11 10:02:05;;;;;;;0.00;0.00;;;21.30;81.40;;;;;;3958706;29;20388;-64
2022/07/11 10:04:27;;;;;;;0.00;0.00;;;21.30;81.30;;;;;;3958489;29;20047;-64
2022/07/11 10:06:50;;;;;;;0.00;0.00;;;21.30;81.30;;;;;;3944897;29;20059;-65
2022/07/11 10:09:12;;;;;;;0.00;0.00;;;21.30;81.20;;;;;;3959120;29;20047;-64
2022/07/11 10:11:35;;;;;;;0.00;0.00;;;21.30;81.00;;;;;;3959050;29;20063;-65
2022/07/11 10:13:59;;;;;;;0.00;0.00;;;21.30;81.00;;;;;;3969830;29;20066;-64
2022/07/11 10:16:41;;;;;;;0.40;0.40;;;21.30;80.90;;;;;;3959164;29;20547;-64
2022/07/11 10:19:30;;;;;;;0.00;0.00;;;21.30;80.90;;;;;;3973445;29;20105;-69
2022/07/11 10:22:06;;;;;;;0.22;0.22;;;21.30;80.90;;;;;;3958567;29;20063;-64
2022/07/11 10:24:41;;;;;;;0.00;0.00;;;21.30;81.00;;;;;;3958750;30;20051;-64
2022/07/11 10:27:09;;;;;;;0.00;0.00;;;21.30;81.00;;;;;;3958362;30;20083;-64
2022/07/11 10:29:36;;;;;;;0.00;0.00;;;21.30;81.00;;;;;;3958370;29;20411;-64
2022/07/11 10:32:10;;;;;;;0.00;0.00;;;21.30;81.00;;;;;;3958233;30;20135;-64
2022/07/11 10:34:35;;;;;;;0.00;0.00;;;21.30;81.00;;;;;;3957878;30;20047;-64
2022/07/11 10:37:01;;;;;;;0.00;0.00;;;21.30;81.00;;;;;;3958320;29;20503;-68
2022/07/11 10:39:26;;;;;;;0.00;0.00;;;21.30;81.00;;;;;;3958617;29;20063;-69
2022/07/11 10:41:48;;;;;;;0.00;0.00;;;21.30;80.90;;;;;;3957818;29;20077;-69
2022/07/11 10:44:10;;;;;;;0.00;0.00;;;21.30;81.00;;;;;;3967381;29;20051;-69
2022/07/11 10:46:32;;;;;;;0.00;0.00;;;21.30;80.90;;;;;;3972303;29;20050;-69
2022/07/11 10:49:03;;;;;;;8.27;2.20;;;21.40;80.90;;;;;;3972740;29;20142;-70
2022/07/11 10:51:29;;;;;;;0.00;0.00;;;21.40;80.90;;;;;;3972630;29;20570;-70
2022/07/11 10:53:52;;;;;;;0.00;0.00;;;21.40;80.90;;;;;;3965711;29;20055;-70
2022/07/11 10:56:30;;;;;;;0.00;0.00;;;21.40;80.80;;;;;;3957798;30;20055;-70
2022/07/11 10:59:15;;;;;;;0.00;0.00;;;21.50;80.80;;;;;;3954820;30;20047;-69
2022/07/11 11:01:57;;;;;;;0.00;0.00;;;21.50;80.60;;;;;;3959866;29;20387;-69
2022/07/11 11:04:43;;;;;;;1.15;1.13;;;21.50;80.50;;;;;;3961900;29;20059;-70
2022/07/11 11:07:05;;;;;;;0.00;0.00;;;21.50;80.30;;;;;;3957620;29;20051;-69
2022/07/11 11:09:40;;;;;;;0.00;0.00;;;21.50;80.10;;;;;;3967345;29;20059;-69
2022/07/11 11:12:02;;;;;;;0.00;0.00;;;21.60;80.00;;;;;;3957187;29;20062;-69
2022/07/11 11:14:28;;;;;;;0.00;0.00;;;21.60;79.80;;;;;;3948413;29;20051;-69
2022/07/11 11:16:51;;;;;;;0.00;0.00;;;21.60;79.70;;;;;;3972029;29;20142;-69
2022/07/11 11:19:46;;;;;;;0.00;0.00;;;21.60;79.50;;;;;;3972683;29;20137;-69
2022/07/11 11:22:15;;;;;;;0.00;0.00;;;21.60;79.50;;;;;;3972324;29;20482;-68
2022/07/11 11:24:37;;;;;;;0.00;0.00;;;21.60;79.50;;;;;;3972285;29;20426;-68
2022/07/11 11:27:02;;;;;;;0.25;0.25;;;21.60;79.50;;;;;;3972191;29;20050;-71
2022/07/11 11:29:26;;;;;;;0.00;0.00;;;21.60;79.50;;;;;;3966757;29;20116;-69
2022/07/11 11:31:55;;;;;;;0.00;0.00;;;21.70;79.60;;;;;;3957952;29;20051;-69
2022/07/11 11:34:17;;;;;;;0.00;0.00;;;21.70;79.60;;;;;;3957509;29;20063;-70
2022/07/11 11:36:41;;;;;;;0.00;0.00;;;21.60;79.50;;;;;;3957949;29;20400;-70
2022/07/11 11:39:05;;;;;;;0.00;0.00;;;21.70;79.60;;;;;;3957000;29;20047;-69
2022/07/11 11:41:29;;;;;;;1.40;0.95;;;21.60;79.50;;;;;;3963009;29;20066;-69
2022/07/11 11:43:52;;;;;;;0.00;0.00;;;21.70;79.60;;;;;;3964454;29;20066;-70
2022/07/11 11:46:14;;;;;;;0.05;0.05;;;21.70;79.60;;;;;;3955812;29;20055;-69
2022/07/11 11:48:38;;;;;;;0.00;0.00;;;21.70;79.50;;;;;;3969344;29;20047;-68
2022/07/11 11:51:03;;;;;;;0.00;0.00;;;21.70;79.50;;;;;;3969814;29;20161;-67
2022/07/11 11:53:26;;;;;;;0.00;0.00;;;21.60;79.30;;;;;;3964713;29;20108;-67
2022/07/11 11:55:49;;;;;;;0.00;0.00;;;21.70;79.30;;;;;;3969994;29;20115;-68
2022/07/11 11:58:12;;;;;;;0.00;0.00;;;21.70;79.30;;;;;;3969650;29;20111;-68
2022/07/11 12:00:34;;;;;;;0.00;0.00;;;21.70;79.20;;;;;;3969430;29;20151;-62
2022/07/11 12:03:16;;;;;;;0.00;0.00;;;21.70;79.10;;;;;;3967845;29;20055;-64
2022/07/11 12:05:38;;;;;;;0.00;0.00;;;21.70;79.00;;;;;;3968378;29;20411;-66
2022/07/11 12:08:00;;;;;;;0.00;0.00;;;21.70;78.90;;;;;;3957306;29;20146;-65
2022/07/11 12:10:22;;;;;;;0.00;0.00;;;21.80;78.90;;;;;;3968717;29;20091;-67
2022/07/11 12:12:52;;;;;;;0.00;0.00;;;21.80;78.90;;;;;;3969211;29;20066;-66
2022/07/11 12:16:38;;;;;;;0.32;0.32;;;21.80;78.90;;;;;;3968156;29;20066;-70
2022/07/11 12:18:17;;;;;;;0.00;0.00;;;21.80;78.90;;;;;;3952165;29;20052;-70
2022/07/11 12:20:41;;;;;;;0.00;0.00;;;21.70;78.80;;;;;;3957045;29;20085;-72
2022/07/11 12:23:05;;;;;;;0.00;0.00;;;21.80;78.80;;;;;;3958836;29;20055;-71
2022/07/11 12:25:34;;;;;;;0.00;0.00;;;21.80;78.80;;;;;;3968423;29;20081;-69
2022/07/11 12:27:58;;;;;;;0.00;0.00;;;21.80;78.80;;;;;;3969231;29;20059;-69
2022/07/11 12:30:24;;;;;;;0.00;0.00;;;21.80;78.70;;;;;;3955483;29;20059;-69
2022/07/11 12:33:03;;;;;;;0.00;0.00;;;21.80;78.60;;;;;;3969170;29;20150;-69
2022/07/11 12:35:25;;;;;;;0.00;0.00;;;21.90;78.60;;;;;;3969446;29;20053;-70
2022/07/11 12:37:47;;;;;;;0.00;0.00;;;21.90;78.80;;;;;;3968405;29;20051;-69
2022/07/11 12:40:13;;;;;;;0.00;0.00;;;21.90;78.40;;;;;;3968115;29;20139;-70
2022/07/11 12:42:37;;;;;;;0.00;0.00;;;21.90;78.40;;;;;;3967373;29;20453;-69